Danville, ME (04223)

6:14 AM EDT on May 30, 2017 (GMT -0400)
Church Rd, New Gloucester Maine | | Change Station

Elev 391 ft 43.97 °N, 70.29 °W | Updated 11 minutes ago

Overcast
Overcast
47.4 °F
Feels Like 47 °F
N
0.0
Wind Variable Wind from SSE
Gusts 0.0 mph

Today
High -- | Low -- °F
--% Chance of Precip.
Yesterday
High -- | Low -- °F
Precip. -- in
Pressure 30.24 in
Visibility 10.0 miles
Clouds Mostly Cloudy 300 ft
Overcast 1100 ft
Windchill 47 °F
Dew Point 47 °F
Humidity 97%
Rainfall 0.02 in
Snow Depth Not available.
5:02 AM 8:15 PM
Waxing Crescent, 28% visible
METAR KLEW 300956Z AUTO 00000KT 10SM BKN003 OVC011 09/08 A3019 RMK AO2 SLP240 T00890083
Pressure 30.24 in
Visibility 10.0 miles
Clouds Mostly Cloudy 300 ft
Overcast 1100 ft
Windchill 47 °F
Dew Point 47 °F
Humidity 97%
Rainfall 0.02 in
Snow Depth Not available.
5:02 AM 8:15 PM
Waxing Crescent, 28% visible
METAR KLEW 300956Z AUTO 00000KT 10SM BKN003 OVC011 09/08 A3019 RMK AO2 SLP240 T00890083

Get Severe Weather Alerts

Thanks for signing up!

Be on the lookout for a verification email in your inbox.

You'll start receiving the daily forecast at 6 AM.

×

10-Day Weather Forecast

Almanac

Astronomy

May. 30, 2017 Rise Set
Actual Time
Civil Twilight
Nautical Twilight
Astronomical Twilight
Moon
Length of Visible Light
Length of Day
Tomorrow will be .
, % of the Moon is Illuminated

Today's Extremes

State Highs State Lows

Community

WunderPhotos

Category 6

Welcome to Category 6. This is the collective home for Weather Underground's featured writeups by Dr. Jeff Masters (right), Bob Henson (left), Chris Burt, and other regular contributors.

Nearby

Air Quality

  Air Quality AQ Index Pollutant
Not available.

Snow Depth

Station Depth Elevation

Earthquake Activity

City Distance Mag. Time & Date
Minimum magnitude displayed is 2.5.

Coastal Water Temperatures

Place Temperature

Stations

Nearby Weather Stations

Station Location Temp. Windchill Dew Point Humidity Wind Precip. Elev Updated Type
                   

Watches & Warnings

There are currently no watches in effect.